Костевка

Карта отелей и гостиниц, располагающихся рядом с аэропортом Костевка :



Костевка Белгородская область 50° 51' 47.7792" N, 38° 4' 57.6804" E
Код аэродрома ИКАО: 
ZF5P
Код аэродрома RU: 
ЗФ5П
Координаты: 
N50.86327° E038.08269°
Превышение над уровнем моря : 
211
Основная полоса: 
09/27
Курс магнитный: 
090,7/270,7
Длина основной ВПП: 
390
Ширина основной ВПП: 
18
Покрытие основной ВПП: 
Твёрдое
Тип: 
Аэродром
Освещение ВПП: 
Нет
Класс аэродрома: 
Статус: 
Недействующий
Принадлежность: 
ГА
Сайт: 
E-mail аэродрома: 
Страна: 
Россия
Регион: 
Белгородская область
Город: 
Дополнительная информация: 
Бывшая лощадка АХР.

Найти трансфер

С помощью этой формы Вы можете найти трансфер из аэропорта Костевка в город, аэропорт или вокзал:

Карта места

Javascript is required to view this map.

Погода в аэропортах:

Авиационная погода в Алматы

Регион: 
Погода METAR: 
UAAA 042000Z 20003MPS 170V230 9999 -SHRA BKN050CB OVC100 27/05 Q1003 R23L/CLRD65 NOSIG
Время наблюдения: 
2020-06-04T20:00:00Z
Температура C: 
27.0
Точка росы: 
5.0
Направление ветра: 
200
Скорость ветра: 
6
Метеорологическая видимость: 
6.21
Явления погоды: 
-SHRA
Условия полета: 
VFR
Аэропорт подробнее: 

Авиационная погода в Трабзоне

Регион: 
Погода METAR: 
LTCG 041950Z 29006KT 9999 -SHRA SCT035 BKN100 18/16 Q1018 NOSIG RMK RWY29 29005KT
Время наблюдения: 
2020-06-04T19:50:00Z
Температура C: 
18.0
Точка росы: 
16.0
Направление ветра: 
290
Скорость ветра: 
6
Метеорологическая видимость: 
6.21
Явления погоды: 
-SHRA
Условия полета: 
VFR

Авиационная погода в Елизово

Регион: 
Погода METAR: 
UHPP 042000Z 16002MPS 9999 -SHRA BKN004 OVC020CB 08/08 Q1019 R34L/290250 NOSIG RMK MT OBSC QFE760/1014
Время наблюдения: 
2020-06-04T20:00:00Z
Температура C: 
8.0
Точка росы: 
8.0
Направление ветра: 
160
Скорость ветра: 
4
Метеорологическая видимость: 
6.21
Явления погоды: 
-SHRA
Условия полета: 
LIFR
Аэропорт подробнее: 

Авиационная погода в Закаталы

Регион: 
Погода METAR: 
UBBY 042000Z 15008KT 9999 VCTS FEW045CB SCT060 22/13 Q1016 R33/////// NOSIG RMK MT OP
Время наблюдения: 
2020-06-04T20:00:00Z
Температура C: 
22.0
Точка росы: 
13.0
Направление ветра: 
150
Скорость ветра: 
8
Метеорологическая видимость: 
6.21
Явления погоды: 
VCTS
Условия полета: 
VFR